Time;durP1;ratioP1;P1;durP2;ratioP2;P2;SDS_P1;SDS_P2;PMS_P1;PMS_P2;Temp;Humidity;BMP_temperature;BMP_pressure;BME280_temperature;BME280_humidity;BME280_pressure;Samples;Min_cycle;Max_cycle;Signal;HPM_P1;HPM_P2
2021/12/06 00:01:55;;;;;;;27.20;11.70;;;;;;;-4.50;76.17;99228.13;5157360;27;20164;-55
2021/12/06 00:04:33;;;;;;;27.48;11.77;;;;;;;-4.46;76.51;99216.50;5157294;27;20484;-54
2021/12/06 00:07:02;;;;;;;25.73;10.73;;;;;;;-4.32;76.13;99222.97;5157047;27;20404;-56
2021/12/06 00:09:29;;;;;;;23.90;10.25;;;;;;;-4.25;74.96;99224.00;5156603;27;20035;-56
2021/12/06 00:11:57;;;;;;;26.63;10.45;;;;;;;-4.25;75.56;99223.19;5157086;27;20042;-56
2021/12/06 00:14:29;;;;;;;30.65;10.00;;;;;;;-4.28;75.43;99231.25;5155710;27;20518;-55
2021/12/06 00:16:59;;;;;;;31.40;11.25;;;;;;;-4.26;75.52;99239.69;5157206;27;20038;-56
2021/12/06 00:19:26;;;;;;;24.63;10.55;;;;;;;-4.20;74.98;99233.94;5155627;27;20065;-53
2021/12/06 00:21:52;;;;;;;26.20;10.77;;;;;;;-4.19;75.01;99246.72;5155512;27;20042;-54
2021/12/06 00:24:18;;;;;;;25.23;11.00;;;;;;;-4.23;74.55;99247.97;5156911;27;20046;-56
2021/12/06 00:26:44;;;;;;;26.33;11.48;;;;;;;-4.28;75.16;99234.66;5155259;27;20447;-54
2021/12/06 00:29:10;;;;;;;30.90;11.00;;;;;;;-4.23;75.12;99232.44;5154848;27;20043;-56
2021/12/06 00:31:37;;;;;;;33.65;12.38;;;;;;;-4.24;75.39;99230.00;5156102;27;20691;-54
2021/12/06 00:34:07;;;;;;;26.67;10.88;;;;;;;-4.24;74.55;99232.59;5156424;27;20074;-56
2021/12/06 00:36:38;;;;;;;26.90;11.27;;;;;;;-4.29;75.65;99239.97;5138571;27;20037;-55
2021/12/06 00:39:07;;;;;;;30.83;10.52;;;;;;;-4.30;75.32;99230.59;5156211;27;20039;-55
2021/12/06 00:41:34;;;;;;;25.65;9.88;;;;;;;-4.35;75.43;99231.84;5155523;27;20035;-52
2021/12/06 00:44:02;;;;;;;32.55;10.88;;;;;;;-4.41;75.36;99234.19;5121498;27;20042;-54
2021/12/06 00:46:29;;;;;;;25.00;8.77;;;;;;;-4.58;76.20;99230.63;5137866;27;20039;-55
2021/12/06 00:48:54;;;;;;;32.20;10.45;;;;;;;-4.66;76.29;99226.16;5156475;27;20047;-54
2021/12/06 00:51:20;;;;;;;27.17;11.50;;;;;;;-4.65;76.34;99230.34;5156441;27;20480;-56
2021/12/06 00:53:46;;;;;;;27.67;11.18;;;;;;;-4.66;76.72;99225.34;5156484;27;20489;-55
2021/12/06 00:56:12;;;;;;;31.80;11.93;;;;;;;-4.65;75.93;99222.59;5155137;27;20031;-56
2021/12/06 00:58:40;;;;;;;35.13;9.90;;;;;;;-4.72;76.63;99220.75;5154921;27;20083;-55
2021/12/06 01:01:07;;;;;;;40.17;12.63;;;;;;;-4.76;76.67;99219.38;5120335;27;20038;-55
2021/12/06 01:03:35;;;;;;;27.02;11.70;;;;;;;-4.67;76.62;99218.56;5137487;27;20050;-55
2021/12/06 01:06:01;;;;;;;31.23;10.98;;;;;;;-4.67;76.51;99219.34;5155322;27;20063;-53
2021/12/06 01:08:28;;;;;;;31.63;12.07;;;;;;;-4.64;76.79;99223.44;5135935;27;20043;-55
2021/12/06 01:10:55;;;;;;;32.35;12.07;;;;;;;-4.76;76.27;99221.97;5154802;27;20481;-56
2021/12/06 01:13:25;;;;;;;28.48;11.48;;;;;;;-4.77;76.16;99220.34;5155784;27;20038;-55
2021/12/06 01:15:52;;;;;;;22.27;9.25;;;;;;;-4.83;76.29;99211.38;5155587;27;20035;-56
2021/12/06 01:18:19;;;;;;;31.70;10.73;;;;;;;-4.95;77.19;99215.13;5155698;27;20441;-54
2021/12/06 01:23:43;;;;;;;31.10;11.43;;;;;;;-4.84;77.17;99225.28;5140034;27;20063;-56
2021/12/06 01:26:32;;;;;;;29.27;11.95;;;;;;;-4.87;76.65;99220.41;5153641;27;20066;-55
2021/12/06 01:39:56;;;;;;;29.10;10.88;;;;;;;-4.98;77.21;99220.56;5154197;27;20042;-52
2021/12/06 01:42:23;;;;;;;34.55;11.50;;;;;;;-4.86;77.01;99219.44;5153969;27;20035;-55
2021/12/06 01:44:55;;;;;;;31.67;12.35;;;;;;;-4.84;76.56;99220.13;5152651;27;20452;-54
2021/12/06 01:47:30;;;;;;;40.97;13.35;;;;;;;-4.82;75.94;99220.78;5153684;27;20094;-55
2021/12/06 01:50:01;;;;;;;38.70;12.23;;;;;;;-4.81;76.51;99214.66;5154031;27;20043;-53
2021/12/06 01:52:39;;;;;;;32.00;12.60;;;;;;;-4.80;76.63;99226.63;5153541;27;20388;-52
2021/12/06 01:55:09;;;;;;;23.95;9.93;;;;;;;-4.83;75.66;99232.06;5153852;27;20094;-54
2021/12/06 01:57:35;;;;;;;39.90;12.87;;;;;;;-4.87;76.36;99223.78;5153802;27;20050;-56
2021/12/06 02:00:08;;;;;;;39.47;13.52;;;;;;;-4.86;75.96;99248.69;5153640;27;20050;-58
2021/12/06 02:02:42;;;;;;;33.45;12.73;;;;;;;-4.83;76.26;99235.47;5154490;27;20117;-49
2021/12/06 02:05:10;;;;;;;40.28;12.63;;;;;;;-4.78;76.28;99244.59;5102815;27;20039;-54
2021/12/06 02:07:36;;;;;;;34.88;12.05;;;;;;;-4.81;76.59;99243.09;5136263;27;20062;-54
2021/12/06 02:10:05;;;;;;;33.75;11.60;;;;;;;-4.75;76.45;99247.69;5118804;27;20133;-54
2021/12/06 02:12:32;;;;;;;31.92;12.02;;;;;;;-4.74;75.87;99251.91;5152821;27;20060;-56
2021/12/06 02:15:07;;;;;;;27.90;11.85;;;;;;;-4.75;76.06;99252.88;5153151;27;20049;-55
2021/12/06 02:17:40;;;;;;;28.27;11.20;;;;;;;-4.79;76.02;99259.28;5153337;27;20053;-56
2021/12/06 02:20:19;;;;;;;37.78;12.82;;;;;;;-4.76;75.96;99256.44;5152708;27;20088;-55
2021/12/06 02:22:46;;;;;;;36.78;13.15;;;;;;;-4.71;75.91;99243.06;5152394;27;20416;-55
2021/12/06 02:25:16;;;;;;;35.42;11.85;;;;;;;-4.72;76.47;99250.00;5154620;27;20408;-55
2021/12/06 02:27:44;;;;;;;36.78;13.27;;;;;;;-4.69;75.81;99256.66;5153245;27;20046;-52
2021/12/06 02:30:12;;;;;;;32.30;11.85;;;;;;;-4.69;76.24;99267.81;5152143;27;20445;-55
2021/12/06 02:32:39;;;;;;;35.63;13.02;;;;;;;-4.68;76.30;99266.84;5154547;27;20054;-53
2021/12/06 02:35:10;;;;;;;39.10;12.68;;;;;;;-4.63;76.46;99264.66;5154479;27;20311;-54
2021/12/06 02:37:36;;;;;;;39.25;12.52;;;;;;;-4.51;75.63;99262.69;5154087;27;20038;-54
2021/12/06 02:40:10;;;;;;;37.72;13.48;;;;;;;-4.47;75.67;99258.88;5152704;27;20054;-55
2021/12/06 02:42:37;;;;;;;36.88;13.18;;;;;;;-4.48;75.91;99270.16;5152850;27;20050;-54
2021/12/06 02:45:04;;;;;;;39.80;13.57;;;;;;;-4.51;75.15;99273.03;5152883;27;20034;-57
2021/12/06 02:47:30;;;;;;;33.45;12.13;;;;;;;-4.49;75.64;99273.72;5152976;27;20046;-57
2021/12/06 02:49:58;;;;;;;39.78;12.50;;;;;;;-4.45;74.98;99275.06;5151904;27;20049;-55
2021/12/06 02:52:24;;;;;;;34.97;13.23;;;;;;;-4.47;75.34;99274.41;5114845;27;20035;-51
2021/12/06 02:54:56;;;;;;;42.35;12.55;;;;;;;-4.52;75.58;99280.97;5149222;27;20542;-54
2021/12/06 02:57:33;;;;;;;34.92;12.82;;;;;;;-4.59;75.74;99289.31;5131785;27;20083;-54
2021/12/06 02:59:59;;;;;;;49.42;13.75;;;;;;;-4.57;75.63;99294.31;5152195;27;20042;-54
2021/12/06 03:02:30;;;;;;;45.13;14.18;;;;;;;-4.52;75.49;99286.13;5152333;27;20559;-54
2021/12/06 03:04:57;;;;;;;45.28;14.80;;;;;;;-4.57;75.94;99289.94;5152404;27;20043;-55
2021/12/06 03:07:25;;;;;;;38.05;14.27;;;;;;;-4.63;76.08;99287.13;5152127;27;20050;-54
2021/12/06 03:09:54;;;;;;;35.55;12.88;;;;;;;-4.58;76.28;99297.88;5134468;27;20050;-54
2021/12/06 03:12:23;;;;;;;39.08;14.25;;;;;;;-4.61;76.22;99298.16;5152262;27;20030;-55
2021/12/06 03:14:55;;;;;;;46.33;13.88;;;;;;;-4.63;75.97;99300.06;5152263;27;20046;-53
2021/12/06 03:17:26;;;;;;;38.45;12.40;;;;;;;-4.69;76.70;99290.28;5151866;27;20038;-55
2021/12/06 03:19:52;;;;;;;36.55;13.35;;;;;;;-4.72;76.17;99301.72;5152123;27;20038;-56
2021/12/06 03:22:19;;;;;;;39.97;13.23;;;;;;;-4.77;76.36;99298.75;5152224;27;20141;-55
2021/12/06 03:24:49;;;;;;;34.95;13.52;;;;;;;-4.77;76.62;99296.16;5152032;27;20038;-54
2021/12/06 03:27:17;;;;;;;34.30;13.73;;;;;;;-4.80;77.48;99296.44;5152719;27;20445;-53
2021/12/06 03:29:44;;;;;;;29.15;12.35;;;;;;;-4.81;77.02;99298.22;5131062;27;20051;-55
2021/12/06 03:32:11;;;;;;;49.97;15.57;;;;;;;-4.77;76.92;99301.31;5130531;27;20051;-56
2021/12/06 03:34:37;;;;;;;36.88;13.32;;;;;;;-4.77;77.38;99293.56;5131065;27;20150;-56
2021/12/06 03:37:05;;;;;;;48.70;14.77;;;;;;;-4.82;76.94;99296.59;5141371;27;20057;-53
2021/12/06 03:39:35;;;;;;;;;;;;;;;-4.93;77.10;99303.69;5152343;27;20091;-53
2021/12/06 03:42:04;;;;;;;43.67;14.43;;;;;;;-4.99;77.38;99299.91;5153109;27;19915;-54
2021/12/06 03:44:31;;;;;;;36.65;11.85;;;;;;;-5.00;77.87;99295.66;5151442;27;20612;-55
2021/12/06 03:47:03;;;;;;;42.72;12.85;;;;;;;-5.03;78.21;99299.38;5150890;27;20125;-54
2021/12/06 03:49:29;;;;;;;46.75;13.18;;;;;;;-5.09;77.70;99312.00;5134822;27;20185;-55
2021/12/06 03:51:56;;;;;;;36.30;14.05;;;;;;;-5.06;78.11;99309.16;5151627;27;20031;-54
2021/12/06 03:54:26;;;;;;;36.72;13.82;;;;;;;-5.02;77.36;99310.53;5151582;27;20039;-53
2021/12/06 03:56:53;;;;;;;43.38;14.23;;;;;;;-5.07;77.92;99302.38;5151683;27;20083;-54
2021/12/06 03:59:19;;;;;;;40.90;13.48;;;;;;;-5.09;77.70;99306.84;5152818;27;20042;-55
2021/12/06 04:01:47;;;;;;;45.65;13.23;;;;;;;-5.05;77.62;99311.63;5151891;27;20531;-56
2021/12/06 04:04:17;;;;;;;42.60;13.70;;;;;;;-4.95;77.53;99318.53;5151507;27;20600;-55
2021/12/06 04:06:44;;;;;;;48.38;14.38;;;;;;;-4.89;77.67;99321.38;5150577;27;20035;-53
2021/12/06 04:09:11;;;;;;;43.17;12.98;;;;;;;-4.99;76.94;99315.41;5151266;27;20074;-55
2021/12/06 04:11:38;;;;;;;48.15;13.43;;;;;;;-4.99;76.97;99322.34;5151809;27;20303;-54
2021/12/06 04:14:05;;;;;;;43.75;14.05;;;;;;;-5.03;77.52;99339.88;5151446;27;20050;-54
2021/12/06 04:16:32;;;;;;;42.65;13.50;;;;;;;-5.03;77.37;99327.81;5151263;27;20260;-52
2021/12/06 04:18:58;;;;;;;50.75;14.88;;;;;;;-4.97;76.74;99341.09;5151517;27;20042;-52
2021/12/06 04:21:25;;;;;;;42.50;13.30;;;;;;;-4.92;76.86;99336.34;5152838;27;20035;-54
2021/12/06 04:23:52;;;;;;;37.72;13.55;;;;;;;-4.90;76.67;99343.00;5134173;27;20538;-56
2021/12/06 04:26:19;;;;;;;37.65;11.98;;;;;;;-4.91;76.92;99348.31;5133245;27;20543;-54
2021/12/06 04:28:58;;;;;;;43.25;13.90;;;;;;;-4.86;76.92;99346.13;5151378;27;20125;-56
2021/12/06 04:31:27;;;;;;;42.75;13.68;;;;;;;-4.92;76.82;99352.66;5151230;27;20028;-55
2021/12/06 04:33:53;;;;;;;33.28;12.55;;;;;;;-4.92;76.47;99336.34;5150845;27;20057;-56
2021/12/06 04:36:19;;;;;;;46.20;13.30;;;;;;;-4.93;76.35;99345.88;5151101;27;20038;-55
2021/12/06 04:38:45;;;;;;;40.03;12.48;;;;;;;-4.89;75.92;99344.63;5151116;27;20038;-55
2021/12/06 04:41:11;;;;;;;33.78;13.20;;;;;;;-4.95;76.33;99350.38;5151246;27;20506;-55
2021/12/06 04:43:37;;;;;;;45.53;14.43;;;;;;;-4.97;76.03;99349.72;5152802;27;20074;-54
2021/12/06 04:46:04;;;;;;;43.42;13.27;;;;;;;-5.05;76.97;99347.81;5133658;27;20039;-57
2021/12/06 04:48:31;;;;;;;50.90;13.73;;;;;;;-5.09;76.33;99346.47;5133774;27;20092;-54
2021/12/06 04:50:57;;;;;;;48.08;14.15;;;;;;;-5.12;76.64;99348.47;5135494;27;20039;-52
2021/12/06 04:53:27;;;;;;;40.88;13.82;;;;;;;-5.14;77.03;99351.22;5154370;27;20122;-56
2021/12/06 04:56:02;;;;;;;30.23;11.67;;;;;;;-5.15;76.61;99364.25;5156346;27;20042;-56
2021/12/06 04:58:34;;;;;;;44.17;14.25;;;;;;;-5.12;76.82;99356.22;5154359;27;20276;-55
2021/12/06 05:01:09;;;;;;;44.92;13.32;;;;;;;-5.10;76.30;99351.75;5155139;27;20086;-53
2021/12/06 05:03:37;;;;;;;41.42;13.63;;;;;;;-5.05;76.25;99342.63;5153797;27;20106;-55
2021/12/06 05:06:12;;;;;;;40.40;13.40;;;;;;;-5.12;76.69;99354.47;5154324;27;20076;-54
2021/12/06 05:08:45;;;;;;;41.22;14.32;;;;;;;-5.23;77.00;99359.00;5155315;27;20042;-54
2021/12/06 05:11:12;;;;;;;40.50;16.00;;;;;;;-5.26;76.92;99354.91;5154397;27;20216;-56
2021/12/06 05:13:42;;;;;;;43.95;13.10;;;;;;;-5.29;76.65;99361.16;5153999;27;20038;-56
2021/12/06 05:16:08;;;;;;;34.42;12.60;;;;;;;-5.28;76.86;99359.38;5154058;27;20046;-53
2021/12/06 05:18:34;;;;;;;35.13;11.02;;;;;;;-5.31;77.42;99368.22;5155402;27;20026;-53
2021/12/06 05:21:00;;;;;;;37.95;14.73;;;;;;;-5.33;77.53;99361.56;5154093;27;20056;-54
2021/12/06 05:23:27;;;;;;;43.78;15.05;;;;;;;-5.30;77.20;99358.69;5153164;27;20046;-54
2021/12/06 05:25:53;;;;;;;47.03;14.60;;;;;;;-5.22;76.92;99371.75;5154061;27;20431;-56
2021/12/06 05:28:25;;;;;;;42.42;13.77;;;;;;;-5.14;76.96;99366.72;5154202;27;20118;-56
2021/12/06 05:30:54;;;;;;;43.40;13.65;;;;;;;-5.09;76.24;99358.53;5154252;27;20542;-52
2021/12/06 05:33:29;;;;;;;40.30;14.90;;;;;;;-5.07;75.77;99361.81;5136533;27;20065;-55
2021/12/06 05:35:58;;;;;;;43.78;15.63;;;;;;;-5.03;76.19;99365.75;5154965;27;20122;-56
2021/12/06 05:38:28;;;;;;;54.67;14.70;;;;;;;-5.04;75.92;99367.50;5155225;27;20043;-54
2021/12/06 05:40:54;;;;;;;38.63;13.13;;;;;;;-5.02;75.61;99369.97;5155661;27;20488;-56
2021/12/06 05:43:21;;;;;;;41.50;13.07;;;;;;;-4.95;74.73;99365.06;5153512;27;20429;-53
2021/12/06 05:45:47;;;;;;;36.75;12.95;;;;;;;-4.84;74.03;99370.91;5146503;27;20411;-54
2021/12/06 05:48:12;;;;;;;33.35;12.52;;;;;;;-4.85;74.13;99381.41;5153198;27;20038;-54
2021/12/06 05:50:39;;;;;;;31.33;11.80;;;;;;;-4.96;73.59;99376.38;5153194;27;20080;-55
2021/12/06 05:53:04;;;;;;;29.65;11.57;;;;;;;-5.00;74.27;99373.22;5152814;27;20524;-57
2021/12/06 05:55:30;;;;;;;32.67;12.27;;;;;;;-4.96;74.06;99374.59;5151886;27;20074;-54
2021/12/06 05:58:00;;;;;;;32.05;10.02;;;;;;;-5.11;73.38;99381.97;5152458;27;20040;-55
2021/12/06 06:00:28;;;;;;;33.97;13.00;;;;;;;-5.12;73.76;99379.50;5151414;27;20038;-53
2021/12/06 06:02:54;;;;;;;35.50;12.73;;;;;;;-5.14;73.92;99374.47;5153096;27;20038;-54
2021/12/06 06:05:20;;;;;;;41.35;14.38;;;;;;;-5.12;74.06;99380.31;5152944;27;20107;-52
2021/12/06 06:07:47;;;;;;;29.08;12.32;;;;;;;-5.08;72.92;99375.69;5151498;27;20125;-53
2021/12/06 06:10:12;;;;;;;44.03;14.18;;;;;;;-5.11;72.88;99387.13;5150816;27;20043;-55
2021/12/06 06:12:38;;;;;;;40.53;15.30;;;;;;;-5.05;73.31;99383.19;5153491;27;20045;-58
2021/12/06 06:15:04;;;;;;;31.55;11.73;;;;;;;-5.15;72.74;99384.94;5153491;27;20543;-58
2021/12/06 06:17:39;;;;;;;29.38;12.70;;;;;;;-5.18;73.35;99385.22;5152899;27;20131;-58
2021/12/06 06:20:07;;;;;;;34.13;12.60;;;;;;;-5.23;73.12;99379.66;5150965;27;20087;-56
2021/12/06 06:22:32;;;;;;;27.52;11.50;;;;;;;-5.22;72.72;99389.03;5150951;27;20045;-56
2021/12/06 06:24:58;;;;;;;34.08;13.02;;;;;;;-5.18;72.76;99383.44;5153965;27;20491;-57
2021/12/06 06:27:24;;;;;;;30.75;13.10;;;;;;;-5.15;72.52;99384.94;5152702;27;20070;-57
2021/12/06 06:29:49;;;;;;;29.52;13.18;;;;;;;-5.15;72.65;99387.53;5150191;27;20472;-58
2021/12/06 06:32:15;;;;;;;30.60;11.05;;;;;;;-5.07;72.74;99392.81;5151649;27;20054;-57
2021/12/06 06:34:41;;;;;;;38.95;13.73;;;;;;;-4.97;72.52;99393.66;5150520;27;20042;-59
2021/12/06 06:37:07;;;;;;;27.40;11.35;;;;;;;-5.03;71.39;99399.34;5149507;27;20125;-59
2021/12/06 06:39:33;;;;;;;27.40;10.48;;;;;;;-5.03;71.93;99394.19;5148317;27;20065;-52
2021/12/06 06:41:59;;;;;;;33.17;11.43;;;;;;;-5.03;72.02;99409.69;5151142;27;20464;-53
2021/12/06 06:44:24;;;;;;;26.13;11.50;;;;;;;-5.06;71.96;99404.78;5147904;27;20517;-57
2021/12/06 06:46:51;;;;;;;36.03;13.23;;;;;;;-5.06;71.68;99405.63;5149328;27;20492;-56
2021/12/06 06:49:18;;;;;;;36.22;12.38;;;;;;;-4.94;71.15;99411.47;5150305;27;20054;-56
2021/12/06 06:51:46;;;;;;;29.58;12.07;;;;;;;-4.92;71.21;99414.72;5149889;27;20038;-55
2021/12/06 06:54:13;;;;;;;32.17;12.10;;;;;;;-4.89;71.00;99424.78;5149478;27;20515;-54
2021/12/06 06:56:39;;;;;;;33.40;13.20;;;;;;;-4.84;71.29;99432.97;5152174;27;20066;-53
2021/12/06 06:59:06;;;;;;;30.75;12.48;;;;;;;-4.77;70.49;99433.22;5149665;27;20043;-55
2021/12/06 07:01:32;;;;;;;33.70;11.77;;;;;;;-4.66;70.21;99425.31;5150635;27;20126;-51
2021/12/06 07:03:59;;;;;;;23.17;11.20;;;;;;;-4.62;71.33;99434.44;5150610;27;20043;-54
2021/12/06 07:06:27;;;;;;;29.77;11.70;;;;;;;-4.49;69.54;99435.91;5150242;27;20035;-51
2021/12/06 07:08:54;;;;;;;25.33;11.50;;;;;;;-4.54;69.52;99422.56;5150802;27;20179;-54
2021/12/06 07:11:21;;;;;;;31.30;12.05;;;;;;;-4.47;69.23;99421.03;5149527;27;20157;-58
2021/12/06 07:13:47;;;;;;;29.73;10.95;;;;;;;-4.59;69.79;99420.38;5149815;27;20580;-56
2021/12/06 07:16:15;;;;;;;27.40;12.30;;;;;;;-4.58;70.11;99420.25;5131591;27;20091;-55
2021/12/06 07:18:41;;;;;;;29.65;11.60;;;;;;;-4.62;70.04;99421.50;5147711;27;20135;-53
2021/12/06 07:21:07;;;;;;;25.70;11.20;;;;;;;-4.59;70.72;99425.56;5149599;27;20042;-54
2021/12/06 07:23:38;;;;;;;37.40;12.75;;;;;;;-4.47;69.81;99423.63;5149608;27;20120;-51
2021/12/06 07:26:13;;;;;;;30.05;12.40;;;;;;;-4.46;69.22;99427.88;5150545;27;20053;-53
2021/12/06 07:28:41;;;;;;;31.40;12.63;;;;;;;-4.62;70.21;99420.66;5149528;27;20053;-56
2021/12/06 07:31:09;;;;;;;29.85;11.40;;;;;;;-4.65;70.89;99424.34;5150031;27;20511;-55
2021/12/06 07:33:35;;;;;;;25.52;11.45;;;;;;;-4.80;70.82;99423.97;5153242;27;20051;-56
2021/12/06 07:36:03;;;;;;;26.52;12.32;;;;;;;-4.74;70.53;99438.09;5149018;27;20056;-56
2021/12/06 07:38:29;;;;;;;32.22;12.32;;;;;;;-4.71;70.52;99437.03;5149103;27;20091;-59
2021/12/06 07:40:56;;;;;;;34.58;13.27;;;;;;;-4.58;70.96;99445.31;5149303;27;20038;-58
2021/12/06 07:43:22;;;;;;;28.85;11.32;;;;;;;-4.66;70.94;99443.41;5134451;27;20454;-57
2021/12/06 07:45:47;;;;;;;30.23;12.52;;;;;;;-4.61;70.85;99445.59;5131739;27;20047;-55
2021/12/06 07:48:14;;;;;;;30.27;12.90;;;;;;;-4.61;70.54;99436.06;5130058;27;20538;-55
2021/12/06 07:50:40;;;;;;;41.38;14.23;;;;;;;-4.61;71.14;99449.00;5146417;27;20514;-56
2021/12/06 07:53:06;;;;;;;36.13;13.38;;;;;;;-4.67;70.57;99446.97;5150314;27;20034;-58
2021/12/06 07:55:34;;;;;;;31.60;12.80;;;;;;;-4.67;71.39;99452.13;5148472;27;20042;-59
2021/12/06 07:58:02;;;;;;;31.13;12.90;;;;;;;-4.69;71.65;99466.97;5149684;27;20445;-56
2021/12/06 08:00:29;;;;;;;31.13;12.77;;;;;;;-4.65;70.39;99465.72;5150940;27;20043;-56
2021/12/06 08:02:55;;;;;;;32.53;13.38;;;;;;;-4.71;72.04;99462.88;5152480;27;20045;-57
2021/12/06 08:05:30;;;;;;;34.30;12.00;;;;;;;-4.61;70.62;99472.28;5131762;27;20053;-55
2021/12/06 08:07:58;;;;;;;41.13;13.93;;;;;;;-4.50;71.28;99471.31;5151990;27;20507;-59
2021/12/06 08:10:24;;;;;;;29.95;12.82;;;;;;;-4.43;70.24;99463.81;5149380;27;20107;-58
2021/12/06 08:12:49;;;;;;;32.08;13.13;;;;;;;-4.30;71.23;99466.09;5147232;27;20122;-59
2021/12/06 08:15:15;;;;;;;35.33;14.07;;;;;;;-4.20;70.27;99464.31;5147956;27;20133;-59
2021/12/06 08:17:41;;;;;;;29.42;12.75;;;;;;;-4.21;70.18;99468.66;5148132;27;20038;-59
2021/12/06 08:20:08;;;;;;;39.80;14.15;;;;;;;-4.22;69.54;99458.44;5154639;27;20071;-56
2021/12/06 08:22:35;;;;;;;29.77;12.98;;;;;;;-4.11;69.37;99463.47;5134692;27;20088;-57
2021/12/06 08:25:04;;;;;;;44.45;15.23;;;;;;;-4.16;70.08;99471.63;5099618;27;20442;-60
2021/12/06 08:27:30;;;;;;;31.13;13.43;;;;;;;-4.14;69.66;99474.09;5150563;27;20043;-57
2021/12/06 08:29:55;;;;;;;42.85;14.90;;;;;;;-4.07;69.41;99469.16;5152712;27;20043;-56
2021/12/06 08:32:21;;;;;;;31.85;13.90;;;;;;;-4.10;69.09;99465.06;5152737;27;20082;-56
2021/12/06 08:34:47;;;;;;;38.38;13.90;;;;;;;-4.18;69.76;99452.81;5152870;27;20050;-55
2021/12/06 08:37:13;;;;;;;34.38;13.95;;;;;;;-4.23;69.45;99446.47;5152320;27;20035;-58
2021/12/06 08:39:40;;;;;;;43.35;14.52;;;;;;;-4.36;70.21;99436.41;5152129;27;20039;-58
2021/12/06 08:42:07;;;;;;;43.00;15.82;;;;;;;-4.45;69.93;99443.25;5153152;27;20030;-57
2021/12/06 08:44:33;;;;;;;43.50;15.82;;;;;;;-4.45;70.56;99432.06;5154818;27;20050;-57
2021/12/06 08:46:59;;;;;;;37.38;15.80;;;;;;;-4.41;69.98;99436.84;5152478;27;20038;-56
2021/12/06 08:49:25;;;;;;;28.65;12.95;;;;;;;-4.42;69.93;99434.38;5153022;27;20055;-57
2021/12/06 08:51:54;;;;;;;33.42;13.13;;;;;;;-4.60;70.26;99435.09;5153234;27;20035;-58
2021/12/06 08:54:22;;;;;;;42.70;14.07;;;;;;;-4.68;70.58;99441.91;5154934;27;20073;-60
2021/12/06 08:56:48;;;;;;;41.15;14.35;;;;;;;-4.72;71.21;99446.56;5152818;27;20046;-57
2021/12/06 08:59:16;;;;;;;35.17;15.23;;;;;;;-4.81;71.26;99453.38;5154937;27;20047;-59
2021/12/06 09:01:42;;;;;;;41.65;15.07;;;;;;;-4.81;70.96;99458.53;5153058;27;20045;-59
2021/12/06 09:04:12;;;;;;;42.83;15.30;;;;;;;-4.86;71.63;99467.66;5152963;27;20050;-58
2021/12/06 09:06:41;;;;;;;39.00;15.63;;;;;;;-4.85;71.24;99467.53;5151254;27;20034;-59
2021/12/06 09:09:09;;;;;;;32.55;12.73;;;;;;;-4.91;71.73;99469.81;5152734;27;20435;-59
2021/12/06 09:11:36;;;;;;;37.35;15.40;;;;;;;-4.93;71.89;99461.41;5152791;27;20495;-58
2021/12/06 09:14:03;;;;;;;42.75;15.65;;;;;;;-4.89;71.66;99463.56;5150837;27;20385;-59
2021/12/06 09:16:29;;;;;;;40.50;15.77;;;;;;;-4.84;71.67;99468.34;5152993;27;20038;-58
2021/12/06 09:18:55;;;;;;;40.20;15.48;;;;;;;-4.80;71.59;99480.84;5152970;27;20043;-59
2021/12/06 09:21:22;;;;;;;40.58;17.13;;;;;;;-4.87;71.62;99478.97;5152119;27;20070;-60
2021/12/06 09:23:49;;;;;;;50.83;17.67;;;;;;;-4.80;71.60;99477.44;5152559;27;20039;-59
2021/12/06 09:26:16;;;;;;;34.70;14.20;;;;;;;-4.75;71.66;99483.03;5150030;27;20389;-59
2021/12/06 09:28:42;;;;;;;46.40;19.60;;;;;;;-4.73;72.53;99475.97;5154247;27;20042;-61
2021/12/06 09:31:09;;;;;;;47.65;16.80;;;;;;;-4.73;71.87;99464.81;5152461;27;20564;-61
2021/12/06 09:33:39;;;;;;;48.17;17.15;;;;;;;-4.73;71.66;99459.63;5151121;27;20534;-60
2021/12/06 09:36:06;;;;;;;52.72;20.58;;;;;;;-4.86;72.17;99465.88;5152173;27;20035;-61
2021/12/06 09:38:38;;;;;;;47.35;16.73;;;;;;;-4.88;73.02;99472.97;5149199;27;20047;-59
2021/12/06 09:41:10;;;;;;;50.30;16.13;;;;;;;-4.86;72.39;99467.66;5151679;27;20042;-60
2021/12/06 09:43:39;;;;;;;39.03;16.48;;;;;;;-4.80;73.08;99462.75;5150357;27;20065;-60
2021/12/06 09:46:10;;;;;;;39.50;14.98;;;;;;;-4.77;72.33;99464.25;5147968;27;20030;-60
2021/12/06 09:48:37;;;;;;;46.80;17.83;;;;;;;-4.77;72.71;99468.59;5149148;27;20035;-57
2021/12/06 09:51:09;;;;;;;49.13;16.60;;;;;;;-4.76;73.07;99468.50;5149311;27;20118;-59
2021/12/06 09:53:38;;;;;;;42.50;16.75;;;;;;;-4.81;73.10;99458.53;5152935;27;20443;-59
2021/12/06 09:56:07;;;;;;;50.75;18.45;;;;;;;-4.79;73.75;99455.84;5150833;27;20121;-60
2021/12/06 09:58:34;;;;;;;44.65;15.77;;;;;;;-4.79;73.15;99455.84;5152604;27;20309;-59
2021/12/06 10:01:08;;;;;;;34.55;14.82;;;;;;;-4.80;73.07;99455.00;5150412;27;20126;-59
2021/12/06 10:03:35;;;;;;;46.08;16.88;;;;;;;-4.78;73.57;99457.44;5150203;27;20089;-58
2021/12/06 10:06:04;;;;;;;44.00;17.17;;;;;;;-4.72;73.80;99456.09;5149185;27;20069;-58
2021/12/06 10:08:36;;;;;;;42.17;15.43;;;;;;;-4.77;73.16;99464.25;5151594;27;20057;-60
2021/12/06 10:11:04;;;;;;;51.63;17.95;;;;;;;-4.76;73.97;99454.72;5149856;27;20968;-60
2021/12/06 10:13:31;;;;;;;43.53;15.52;;;;;;;-4.72;73.99;99445.75;5150177;27;20034;-60
2021/12/06 10:15:57;;;;;;;45.38;15.90;;;;;;;-4.70;73.82;99461.94;5148037;27;20087;-57
2021/12/06 10:18:22;;;;;;;49.58;17.75;;;;;;;-4.66;73.53;99471.06;5153202;27;20125;-58
2021/12/06 10:20:49;;;;;;;39.28;16.27;;;;;;;-4.59;73.86;99472.97;5152352;27;20150;-58
2021/12/06 10:23:17;;;;;;;51.97;17.27;;;;;;;-4.53;73.77;99473.34;5152582;27;20251;-58
2021/12/06 10:25:49;;;;;;;49.08;18.08;;;;;;;-4.47;73.96;99457.25;5132997;27;20487;-58
2021/12/06 10:28:17;;;;;;;49.10;17.92;;;;;;;-4.41;73.88;99460.13;5153135;27;20120;-59
2021/12/06 10:30:47;;;;;;;47.92;17.38;;;;;;;-4.32;73.32;99463.66;5151707;27;20042;-59
2021/12/06 10:33:15;;;;;;;49.90;19.45;;;;;;;-4.20;73.73;99470.28;5153426;27;20055;-59
2021/12/06 10:35:43;;;;;;;49.83;17.58;;;;;;;-4.10;73.07;99472.84;5152088;27;20043;-58
2021/12/06 10:38:10;;;;;;;53.10;18.10;;;;;;;-4.03;73.50;99473.94;5152202;27;20031;-60
2021/12/06 10:40:39;;;;;;;52.38;19.23;;;;;;;-4.07;73.26;99474.34;5149948;27;20515;-59
2021/12/06 10:43:08;;;;;;;45.15;18.98;;;;;;;-3.92;73.41;99472.91;5152031;27;20039;-60
2021/12/06 10:45:37;;;;;;;59.70;21.33;;;;;;;-3.76;73.35;99473.13;5148814;27;20042;-59
2021/12/06 10:48:07;;;;;;;44.13;17.35;;;;;;;-3.66;73.17;99481.66;5151481;27;20043;-59
2021/12/06 10:50:35;;;;;;;58.50;20.63;;;;;;;-3.64;72.94;99478.13;5150067;27;20047;-58
2021/12/06 10:53:01;;;;;;;58.20;21.80;;;;;;;-3.70;72.99;99477.75;5149473;27;20047;-58
2021/12/06 10:55:30;;;;;;;71.22;22.33;;;;;;;-3.63;73.10;99480.56;5147901;27;20039;-57
2021/12/06 10:58:03;;;;;;;57.57;22.77;;;;;;;-3.69;73.01;99471.59;5151051;27;20038;-59
2021/12/06 11:00:56;;;;;;;56.78;20.83;;;;;;;-3.70;73.67;99482.94;5130343;27;20126;-57
2021/12/06 11:03:36;;;;;;;49.63;18.38;;;;;;;-3.66;74.03;99480.84;5102257;27;20053;-58
2021/12/06 11:06:09;;;;;;;42.05;16.13;;;;;;;-3.51;75.43;99486.38;5149353;27;20046;-59
2021/12/06 11:08:37;;;;;;;49.13;15.00;;;;;;;-3.46;75.61;99487.56;5149843;27;20098;-58
2021/12/06 11:11:12;;;;;;;39.45;14.88;;;;;;;-3.32;76.07;99494.06;5148093;27;20408;-59
2021/12/06 11:13:44;;;;;;;36.67;14.73;;;;;;;-3.17;74.83;99496.97;5149099;27;20499;-58
2021/12/06 11:16:32;;;;;;;42.72;15.40;;;;;;;-3.09;75.04;99497.06;5146589;27;20046;-59
2021/12/06 11:19:01;;;;;;;40.20;14.55;;;;;;;-2.98;74.72;99507.19;5147654;27;20500;-58
2021/12/06 11:21:43;;;;;;;42.80;15.52;;;;;;;-2.93;74.30;99513.72;5129398;27;20045;-56
2021/12/06 11:24:18;;;;;;;37.10;14.80;;;;;;;-2.87;74.28;99510.53;5128767;27;20524;-57
2021/12/06 11:26:59;;;;;;;42.22;17.08;;;;;;;-2.80;73.99;99507.19;5136886;27;20484;-56
2021/12/06 11:29:33;;;;;;;45.78;15.98;;;;;;;-2.76;73.77;99511.13;5147483;27;20058;-58
2021/12/06 11:32:12;;;;;;;42.58;16.27;;;;;;;-2.73;73.65;99504.84;5148223;27;20050;-58
2021/12/06 11:34:45;;;;;;;42.28;16.00;;;;;;;-2.73;73.43;99517.81;5147993;27;20556;-57
2021/12/06 11:37:15;;;;;;;53.03;18.50;;;;;;;-2.82;72.34;99523.91;5148292;27;20047;-58